createdAt,value
2022-08-14T00:02:03.661Z,19.67
2022-08-14T00:04:41.959Z,19.68
2022-08-14T00:07:14.114Z,19.70
2022-08-14T00:10:01.895Z,19.71
2022-08-14T00:12:37.770Z,19.73
2022-08-14T00:15:15.354Z,19.75
2022-08-14T00:17:47.269Z,19.77
2022-08-14T00:20:24.165Z,19.78
2022-08-14T00:23:14.677Z,19.81
2022-08-14T00:25:53.752Z,19.82
2022-08-14T00:28:32.497Z,19.80
2022-08-14T00:31:02.604Z,19.79
2022-08-14T00:33:52.496Z,19.80
2022-08-14T00:36:37.695Z,19.81
2022-08-14T00:39:06.469Z,19.81
2022-08-14T00:41:36.877Z,19.80
2022-08-14T00:44:07.446Z,19.79
2022-08-14T00:46:36.991Z,19.79
2022-08-14T00:49:05.740Z,19.78
2022-08-14T00:51:34.826Z,19.77
2022-08-14T00:54:16.854Z,19.77
2022-08-14T00:56:54.802Z,19.77
2022-08-14T00:59:27.523Z,19.77
2022-08-14T01:01:58.487Z,19.79
2022-08-14T01:04:50.963Z,19.82
2022-08-14T01:07:20.624Z,19.84
2022-08-14T01:09:52.766Z,19.86
2022-08-14T01:12:26.913Z,19.84
2022-08-14T01:14:58.758Z,19.83
2022-08-14T01:17:49.589Z,19.83
2022-08-14T01:20:53.336Z,19.85
2022-08-14T01:23:21.699Z,19.86
2022-08-14T01:25:51.027Z,19.86
2022-08-14T01:28:46.314Z,19.85
2022-08-14T01:31:12.226Z,19.86
2022-08-14T01:33:59.636Z,19.85
2022-08-14T01:36:36.597Z,19.81
2022-08-14T01:39:13.318Z,19.82
2022-08-14T01:41:43.229Z,19.83
2022-08-14T01:44:33.234Z,19.85
2022-08-14T01:47:01.997Z,19.86
2022-08-14T01:49:35.261Z,19.85
2022-08-14T01:52:09.051Z,19.84
2022-08-14T01:54:58.165Z,19.85
2022-08-14T01:57:26.407Z,19.85
2022-08-14T02:00:18.758Z,19.85
2022-08-14T02:02:46.879Z,19.85
2022-08-14T02:05:21.337Z,19.86
2022-08-14T02:07:55.879Z,19.86
2022-08-14T02:10:46.288Z,19.86
2022-08-14T02:13:16.675Z,19.88
2022-08-14T02:15:45.734Z,19.89
2022-08-14T02:18:16.372Z,19.91
2022-08-14T02:20:48.302Z,19.92
2022-08-14T02:23:29.129Z,19.89
2022-08-14T02:26:24.017Z,19.87
2022-08-14T02:28:57.941Z,19.84
2022-08-14T02:31:42.516Z,19.82
2022-08-14T02:34:26.345Z,19.82
2022-08-14T02:37:03.924Z,19.81
2022-08-14T02:39:34.658Z,19.81
2022-08-14T02:42:04.436Z,19.81
2022-08-14T02:44:39.550Z,19.81
2022-08-14T02:47:14.741Z,19.81
2022-08-14T02:49:42.915Z,19.81
2022-08-14T02:52:56.049Z,19.81
2022-08-14T02:55:00.804Z,19.81
2022-08-14T02:57:39.958Z,19.80
2022-08-14T03:00:10.117Z,19.80
2022-08-14T03:02:56.444Z,19.79
2022-08-14T03:05:29.331Z,19.79
2022-08-14T03:08:04.751Z,19.77
2022-08-14T03:10:36.990Z,19.76
2022-08-14T03:13:13.805Z,19.75
2022-08-14T03:15:51.026Z,19.74
2022-08-14T03:18:31.960Z,19.73
2022-08-14T03:21:01.437Z,19.74
2022-08-14T03:23:34.071Z,19.74
2022-08-14T03:26:07.213Z,19.74
2022-08-14T03:28:36.612Z,19.73
2022-08-14T03:31:08.346Z,19.72
2022-08-14T03:33:41.295Z,19.69
2022-08-14T03:37:39.038Z,19.70
2022-08-14T03:39:11.592Z,19.70
2022-08-14T03:41:43.869Z,19.73
2022-08-14T03:45:19.078Z,19.75
2022-08-14T03:46:59.689Z,19.76
2022-08-14T03:49:30.801Z,19.77
2022-08-14T03:52:01.329Z,19.79
2022-08-14T03:54:30.396Z,19.82
2022-08-14T03:57:03.008Z,19.85
2022-08-14T03:59:31.806Z,19.88
2022-08-14T04:02:01.700Z,19.91
2022-08-14T04:04:30.769Z,19.93
2022-08-14T04:06:59.871Z,19.96
2022-08-14T04:09:27.798Z,19.99
2022-08-14T04:11:56.288Z,20.03
2022-08-14T04:14:25.896Z,20.06
2022-08-14T04:16:53.539Z,20.11
2022-08-14T04:19:23.982Z,20.14
2022-08-14T04:22:02.415Z,20.19
2022-08-14T04:24:38.449Z,20.22
2022-08-14T04:27:09.575Z,20.27
2022-08-14T04:29:42.810Z,20.35
2022-08-14T04:32:58.211Z,20.43
2022-08-14T04:35:00.951Z,20.51
2022-08-14T04:37:47.219Z,20.55
2022-08-14T04:40:40.762Z,20.54
2022-08-14T04:43:32.452Z,20.51
2022-08-14T04:46:08.506Z,20.51
2022-08-14T04:48:43.277Z,20.50
2022-08-14T04:51:12.395Z,20.60
2022-08-14T04:53:43.917Z,20.72
2022-08-14T04:56:31.227Z,20.82
2022-08-14T04:59:02.302Z,20.85
2022-08-14T05:01:39.995Z,20.88
2022-08-14T05:04:08.764Z,20.95
2022-08-14T05:06:44.094Z,21.00
2022-08-14T05:09:14.324Z,21.03
2022-08-14T05:11:42.549Z,21.02
2022-08-14T05:14:17.326Z,20.99
2022-08-14T05:17:01.828Z,21.02
2022-08-14T05:19:32.555Z,21.10
2022-08-14T05:22:17.265Z,21.15
2022-08-14T05:24:50.368Z,21.21
2022-08-14T05:27:23.153Z,21.24
2022-08-14T05:29:53.278Z,21.39
2022-08-14T05:32:21.567Z,21.53
2022-08-14T05:34:50.502Z,21.68
2022-08-14T05:37:19.079Z,21.96
2022-08-14T05:39:46.980Z,22.23
2022-08-14T05:42:22.014Z,22.37
2022-08-14T05:44:57.499Z,22.46
2022-08-14T05:47:28.549Z,22.56
2022-08-14T05:50:02.271Z,22.68
2022-08-14T05:52:39.335Z,22.74
2022-08-14T05:55:08.299Z,22.80
2022-08-14T05:57:49.035Z,22.85
2022-08-14T06:00:25.026Z,22.91
2022-08-14T06:03:00.009Z,23.00
2022-08-14T06:05:28.823Z,23.06
2022-08-14T06:07:58.043Z,23.21
2022-08-14T06:10:28.334Z,23.31
2022-08-14T06:12:58.053Z,23.37
2022-08-14T06:15:30.025Z,23.34
2022-08-14T06:18:00.103Z,23.36
2022-08-14T06:20:30.029Z,23.47
2022-08-14T06:22:59.089Z,23.74
2022-08-14T06:25:26.914Z,24.04
2022-08-14T06:27:55.937Z,24.26
2022-08-14T06:30:30.376Z,24.44
2022-08-14T06:33:13.714Z,24.47
2022-08-14T06:35:43.527Z,24.53
2022-08-14T06:38:17.385Z,24.63
2022-08-14T06:40:45.964Z,24.62
2022-08-14T06:43:15.195Z,24.60
2022-08-14T06:45:43.718Z,24.49
2022-08-14T06:48:18.961Z,24.63
2022-08-14T06:50:49.769Z,24.83
2022-08-14T06:53:19.903Z,24.89
2022-08-14T06:55:58.111Z,24.92
2022-08-14T06:58:30.928Z,25.01
2022-08-14T07:01:24.943Z,25.23
2022-08-14T07:04:23.908Z,25.38
2022-08-14T07:06:55.530Z,25.50
2022-08-14T07:09:28.326Z,25.42
2022-08-14T07:12:56.095Z,25.46
2022-08-14T07:15:01.587Z,25.52
2022-08-14T07:17:29.271Z,25.54
2022-08-14T07:19:59.807Z,25.59
2022-08-14T07:22:32.880Z,25.68
2022-08-14T07:25:15.098Z,25.87
2022-08-14T07:27:42.827Z,26.05
2022-08-14T07:30:33.835Z,26.09
2022-08-14T07:32:58.978Z,26.05
2022-08-14T07:35:37.252Z,26.07
2022-08-14T07:38:16.610Z,26.12
2022-08-14T07:40:45.314Z,26.47
2022-08-14T07:43:14.848Z,26.63
2022-08-14T07:45:43.188Z,26.40
2022-08-14T07:48:14.956Z,26.26
2022-08-14T07:50:45.464Z,26.14
2022-08-14T07:53:14.262Z,25.91
2022-08-14T07:55:42.902Z,25.79
2022-08-14T07:58:21.289Z,25.61
2022-08-14T08:00:58.749Z,25.45
2022-08-14T08:03:28.245Z,25.29
2022-08-14T08:05:58.108Z,25.14
2022-08-14T08:08:27.722Z,25.17
2022-08-14T08:11:02.979Z,25.09
2022-08-14T08:13:31.610Z,25.05
2022-08-14T08:16:03.251Z,24.95
2022-08-14T08:18:31.345Z,24.77
2022-08-14T08:21:00.261Z,24.67
2022-08-14T08:23:32.615Z,24.54
2022-08-14T08:26:08.582Z,24.54
2022-08-14T08:28:36.198Z,24.60
2022-08-14T08:31:05.253Z,24.68
2022-08-14T08:33:37.161Z,24.87
2022-08-14T08:36:06.525Z,24.95
2022-08-14T08:39:15.556Z,24.90
2022-08-14T08:41:24.483Z,24.97
2022-08-14T08:43:54.014Z,25.34
2022-08-14T08:46:24.340Z,25.49
2022-08-14T08:51:33.257Z,25.58
2022-08-14T08:54:15.389Z,25.47
2022-08-14T08:56:49.031Z,25.48
2022-08-14T08:59:17.839Z,25.68
2022-08-14T09:01:52.344Z,25.72
2022-08-14T09:04:25.325Z,25.76
2022-08-14T09:07:00.097Z,25.71
2022-08-14T09:09:54.088Z,25.72
2022-08-14T09:12:32.233Z,25.67
2022-08-14T09:15:01.872Z,25.55
2022-08-14T09:17:29.537Z,25.45
2022-08-14T09:19:57.085Z,25.39
2022-08-14T09:22:36.069Z,25.39
2022-08-14T09:25:16.867Z,25.69
2022-08-14T09:27:44.571Z,26.59
2022-08-14T09:30:33.197Z,26.66
2022-08-14T09:33:10.975Z,26.70
2022-08-14T09:35:56.580Z,26.77
2022-08-14T09:38:27.618Z,27.00
2022-08-14T09:41:14.035Z,27.09
2022-08-14T09:43:45.880Z,27.13
2022-08-14T09:46:17.102Z,27.13
2022-08-14T09:48:57.855Z,27.10
2022-08-14T09:51:26.088Z,27.44
2022-08-14T09:54:19.239Z,27.75
2022-08-14T09:56:56.896Z,27.75
2022-08-14T09:59:27.865Z,27.96
2022-08-14T10:01:57.403Z,29.18
2022-08-14T10:04:36.016Z,33.72
2022-08-14T10:07:06.009Z,37.58
2022-08-14T10:09:57.523Z,36.60
2022-08-14T10:12:44.879Z,34.97
2022-08-14T10:15:16.760Z,38.01
2022-08-14T10:17:44.329Z,40.95
2022-08-14T10:20:39.999Z,43.77
2022-08-14T10:23:23.033Z,45.75
2022-08-14T10:25:57.725Z,45.94
2022-08-14T10:28:39.065Z,44.52
2022-08-14T10:31:16.564Z,41.84
2022-08-14T10:34:00.416Z,40.28
2022-08-14T10:36:34.751Z,38.99
2022-08-14T10:39:09.516Z,37.83
2022-08-14T10:41:41.722Z,36.65
2022-08-14T10:44:21.666Z,37.60
2022-08-14T10:47:40.378Z,38.16
2022-08-14T10:49:53.221Z,39.57
2022-08-14T10:52:24.293Z,41.24
2022-08-14T10:54:56.402Z,41.58
2022-08-14T10:57:25.417Z,41.02
2022-08-14T10:59:56.174Z,39.92
2022-08-14T11:02:50.214Z,39.08
2022-08-14T11:05:24.946Z,37.34
2022-08-14T11:07:56.364Z,37.03
2022-08-14T11:10:40.856Z,36.45
2022-08-14T11:13:15.526Z,35.94
2022-08-14T11:15:43.201Z,36.70
2022-08-14T11:18:12.112Z,37.16
2022-08-14T11:20:50.901Z,37.06
2022-08-14T11:23:22.857Z,36.75
2022-08-14T11:25:53.462Z,36.24
2022-08-14T11:28:48.004Z,35.87
2022-08-14T11:31:11.144Z,35.48
2022-08-14T11:33:39.522Z,35.09
2022-08-14T11:36:17.829Z,35.08
2022-08-14T11:38:46.677Z,35.36
2022-08-14T11:41:17.059Z,35.40
2022-08-14T11:43:55.853Z,35.74
2022-08-14T11:46:30.371Z,35.87
2022-08-14T11:49:06.350Z,35.68
2022-08-14T11:51:36.150Z,35.29
2022-08-14T11:54:33.724Z,35.18
2022-08-14T11:57:04.491Z,34.75
2022-08-14T11:59:35.404Z,34.44
2022-08-14T12:02:38.975Z,34.10
2022-08-14T12:05:00.405Z,33.92
2022-08-14T12:07:32.078Z,33.41
2022-08-14T12:09:59.994Z,32.93
2022-08-14T12:12:34.930Z,32.71
2022-08-14T12:15:05.419Z,32.47
2022-08-14T12:17:47.676Z,32.44
2022-08-14T12:20:30.261Z,32.33
2022-08-14T12:23:00.996Z,31.94
2022-08-14T12:25:29.002Z,31.57
2022-08-14T12:27:59.079Z,31.19
2022-08-14T12:30:27.450Z,31.07
2022-08-14T12:33:03.477Z,30.75
2022-08-14T12:35:39.667Z,30.64
2022-08-14T12:38:07.464Z,30.59
2022-08-14T12:40:35.273Z,30.36
2022-08-14T12:43:08.953Z,30.09
2022-08-14T12:45:49.484Z,29.93
2022-08-14T12:48:21.717Z,29.77
2022-08-14T12:50:59.363Z,29.61
2022-08-14T12:53:36.242Z,29.49
2022-08-14T12:56:21.884Z,29.33
2022-08-14T12:58:56.492Z,29.25
2022-08-14T13:01:28.554Z,29.14
2022-08-14T13:04:10.465Z,29.01
2022-08-14T13:06:44.733Z,28.96
2022-08-14T13:09:19.334Z,29.02
2022-08-14T13:11:49.480Z,29.00
2022-08-14T13:14:29.887Z,28.89
2022-08-14T13:16:58.503Z,28.83
2022-08-14T13:19:28.246Z,28.80
2022-08-14T13:22:05.785Z,28.79
2022-08-14T13:24:38.344Z,28.78
2022-08-14T13:27:10.008Z,28.70
2022-08-14T13:29:46.533Z,28.50
2022-08-14T13:32:15.194Z,28.25
2022-08-14T13:34:48.809Z,28.18
2022-08-14T13:37:17.277Z,28.09
2022-08-14T13:39:57.090Z,27.99
2022-08-14T13:42:30.261Z,27.87
2022-08-14T13:45:02.328Z,27.77
2022-08-14T13:47:30.850Z,27.65
2022-08-14T13:50:00.442Z,27.62
2022-08-14T13:52:51.987Z,27.65
2022-08-14T13:55:18.441Z,27.81
2022-08-14T13:57:59.472Z,28.00
2022-08-14T14:00:53.189Z,27.99
2022-08-14T14:03:24.038Z,28.05
2022-08-14T14:05:54.884Z,28.21
2022-08-14T14:08:43.315Z,28.27
2022-08-14T14:11:11.307Z,28.26
2022-08-14T14:13:44.747Z,28.32
2022-08-14T14:16:15.595Z,28.57
2022-08-14T14:18:56.175Z,28.55
2022-08-14T14:21:28.715Z,28.46
2022-08-14T14:23:56.977Z,28.45
2022-08-14T14:26:25.043Z,28.49
2022-08-14T14:28:55.342Z,28.39
2022-08-14T14:31:30.088Z,28.31
2022-08-14T14:34:00.435Z,28.25
2022-08-14T14:36:29.495Z,28.18
2022-08-14T14:38:58.212Z,28.14
2022-08-14T14:41:37.881Z,28.17
2022-08-14T14:44:16.505Z,28.09
2022-08-14T14:46:51.005Z,27.92
2022-08-14T14:49:21.833Z,27.81
2022-08-14T14:51:51.630Z,27.77
2022-08-14T14:54:31.871Z,27.63
2022-08-14T14:57:02.542Z,27.57
2022-08-14T14:59:35.952Z,27.53
2022-08-14T15:02:07.855Z,27.58
2022-08-14T15:04:37.893Z,27.66
2022-08-14T15:07:06.496Z,27.65
2022-08-14T15:09:34.582Z,27.64
2022-08-14T15:12:05.545Z,27.64
2022-08-14T15:14:55.896Z,27.87
2022-08-14T15:17:28.655Z,28.29
2022-08-14T15:20:07.361Z,28.62
2022-08-14T15:22:36.915Z,28.67
2022-08-14T15:25:05.261Z,28.52
2022-08-14T15:27:34.836Z,28.44
2022-08-14T15:30:02.412Z,28.28
2022-08-14T15:32:30.300Z,28.15
2022-08-14T15:35:00.829Z,28.12
2022-08-14T15:37:32.660Z,28.06
2022-08-14T15:40:02.344Z,27.99
2022-08-14T15:42:38.120Z,27.89
2022-08-14T15:45:10.046Z,27.85
2022-08-14T15:47:41.633Z,27.82
2022-08-14T15:50:12.743Z,27.71
2022-08-14T15:52:44.878Z,27.57
2022-08-14T15:55:14.509Z,27.46
2022-08-14T15:58:02.428Z,27.38
2022-08-14T16:00:53.559Z,27.22
2022-08-14T16:03:27.582Z,27.08
2022-08-14T16:06:10.965Z,26.95
2022-08-14T16:08:43.916Z,26.87
2022-08-14T16:11:11.901Z,26.83
2022-08-14T16:13:44.398Z,26.78
2022-08-14T16:16:47.545Z,26.70
2022-08-14T16:18:59.578Z,26.64
2022-08-14T16:21:31.571Z,26.60
2022-08-14T16:23:59.985Z,26.56
2022-08-14T16:26:30.095Z,26.53
2022-08-14T16:29:15.572Z,26.52
2022-08-14T16:31:44.857Z,26.48
2022-08-14T16:34:45.014Z,26.47
2022-08-14T16:37:03.167Z,26.48
2022-08-14T16:39:30.907Z,26.44
2022-08-14T16:42:00.582Z,26.39
2022-08-14T16:44:41.680Z,26.33
2022-08-14T16:47:17.466Z,26.28
2022-08-14T16:50:04.311Z,26.24
2022-08-14T16:52:44.124Z,26.21
2022-08-14T16:55:13.788Z,26.19
2022-08-14T16:57:52.002Z,26.19
2022-08-14T17:00:43.493Z,26.17
2022-08-14T17:03:12.386Z,26.15
2022-08-14T17:05:42.946Z,26.15
2022-08-14T17:08:33.052Z,26.14
2022-08-14T17:11:01.716Z,26.14
2022-08-14T17:14:00.027Z,26.12
2022-08-14T17:16:26.006Z,26.13
2022-08-14T17:19:00.782Z,26.14
2022-08-14T17:21:32.668Z,26.12
2022-08-14T17:24:56.043Z,26.10
2022-08-14T17:26:55.201Z,26.09
2022-08-14T17:29:29.447Z,26.04
2022-08-14T17:32:29.257Z,25.96
2022-08-14T17:35:10.076Z,25.88
2022-08-14T17:37:44.890Z,25.82
2022-08-14T17:40:15.934Z,25.77
2022-08-14T17:42:53.347Z,25.72
2022-08-14T17:45:28.144Z,25.66
2022-08-14T17:47:59.062Z,25.64
2022-08-14T17:50:55.121Z,25.60
2022-08-14T17:53:30.515Z,25.55
2022-08-14T17:56:00.935Z,25.50
2022-08-14T17:58:38.549Z,25.45
2022-08-14T18:01:12.682Z,25.38
2022-08-14T18:03:50.195Z,25.31
2022-08-14T18:06:38.709Z,25.22
2022-08-14T18:09:25.234Z,25.12
2022-08-14T18:11:55.501Z,24.98
2022-08-14T18:14:32.204Z,24.84
2022-08-14T18:17:11.725Z,24.72
2022-08-14T18:19:41.620Z,24.62
2022-08-14T18:22:23.872Z,24.54
2022-08-14T18:24:57.353Z,24.43
2022-08-14T18:27:36.382Z,24.34
2022-08-14T18:30:33.119Z,24.27
2022-08-14T18:32:55.343Z,24.20
2022-08-14T18:35:46.370Z,24.14
2022-08-14T18:38:25.963Z,24.08
2022-08-14T18:40:54.905Z,24.06
2022-08-14T18:43:43.082Z,24.04
2022-08-14T18:46:59.563Z,24.01
2022-08-14T18:49:13.244Z,23.98
2022-08-14T18:51:45.237Z,23.95
2022-08-14T18:54:27.015Z,23.90
2022-08-14T18:57:01.414Z,23.89
2022-08-14T18:59:35.723Z,23.89
2022-08-14T19:02:22.402Z,23.88
2022-08-14T19:05:02.794Z,23.88
2022-08-14T19:07:33.217Z,23.87
2022-08-14T19:10:03.464Z,23.85
2022-08-14T19:12:50.114Z,23.83
2022-08-14T19:15:19.897Z,23.80
2022-08-14T19:18:14.366Z,23.79
2022-08-14T19:20:52.880Z,23.76
2022-08-14T19:23:23.117Z,23.76
2022-08-14T19:26:36.255Z,23.74
2022-08-14T19:29:19.969Z,23.70
2022-08-14T19:31:55.237Z,23.63
2022-08-14T19:34:35.352Z,23.58
2022-08-14T19:37:05.942Z,23.55
2022-08-14T19:39:47.513Z,23.50
2022-08-14T19:42:46.739Z,23.45
2022-08-14T19:45:14.894Z,23.37
2022-08-14T19:47:42.794Z,23.31
2022-08-14T19:50:31.133Z,23.25
2022-08-14T19:53:11.416Z,23.18
2022-08-14T19:55:45.849Z,23.10
2022-08-14T19:58:13.703Z,23.05
2022-08-14T20:00:52.305Z,23.01
2022-08-14T20:03:24.234Z,22.93
2022-08-14T20:06:05.571Z,22.83
2022-08-14T20:11:01.102Z,22.73
2022-08-14T20:12:00.590Z,22.63
2022-08-14T20:14:29.487Z,22.55
2022-08-14T20:17:05.614Z,22.49
2022-08-14T20:19:37.861Z,22.44
2022-08-14T20:22:36.386Z,22.38
2022-08-14T20:25:10.400Z,22.32
2022-08-14T20:27:40.052Z,22.28
2022-08-14T20:30:29.776Z,22.24
2022-08-14T20:32:56.769Z,22.21
2022-08-14T20:35:36.300Z,22.19
2022-08-14T20:38:30.538Z,22.17
2022-08-14T20:40:53.601Z,22.14
2022-08-14T20:43:48.288Z,22.11
2022-08-14T20:46:29.456Z,22.06
2022-08-14T20:49:08.737Z,22.02
2022-08-14T20:51:47.440Z,21.99
2022-08-14T20:54:33.543Z,21.97
2022-08-14T20:57:09.293Z,21.93
2022-08-14T20:59:43.458Z,21.88
2022-08-14T21:02:38.850Z,21.85
2022-08-14T21:05:19.538Z,21.81
2022-08-14T21:07:51.287Z,21.77
2022-08-14T21:10:33.782Z,21.71
2022-08-14T21:13:11.902Z,21.64
2022-08-14T21:15:56.672Z,21.57
2022-08-14T21:18:28.853Z,21.54
2022-08-14T21:20:57.790Z,21.50
2022-08-14T21:23:27.301Z,21.45
2022-08-14T21:26:00.292Z,21.40
2022-08-14T21:28:30.172Z,21.37
2022-08-14T21:31:03.179Z,21.31
2022-08-14T21:33:30.899Z,21.26
2022-08-14T21:35:59.339Z,21.21
2022-08-14T21:38:38.097Z,21.14
2022-08-14T21:41:50.049Z,21.07
2022-08-14T21:44:17.717Z,20.99
2022-08-14T21:46:49.833Z,20.93
2022-08-14T21:49:38.318Z,20.87
2022-08-14T21:52:50.532Z,20.80
2022-08-14T21:54:59.481Z,20.73
2022-08-14T21:58:45.972Z,20.68
2022-08-14T22:00:36.061Z,20.62
2022-08-14T22:03:05.830Z,20.59
2022-08-14T22:05:33.655Z,20.56
2022-08-14T22:08:21.595Z,20.53
2022-08-14T22:10:54.681Z,20.45
2022-08-14T22:13:24.697Z,20.40
2022-08-14T22:15:58.200Z,20.33
2022-08-14T22:18:30.024Z,20.27
2022-08-14T22:20:57.896Z,20.22
2022-08-14T22:23:26.025Z,20.20
2022-08-14T22:25:55.257Z,20.17
2022-08-14T22:28:25.405Z,20.14
2022-08-14T22:30:54.798Z,20.10
2022-08-14T22:33:31.097Z,20.07
2022-08-14T22:36:00.467Z,20.03
2022-08-14T22:38:37.879Z,20.02
2022-08-14T22:41:27.682Z,19.99
2022-08-14T22:43:56.133Z,19.94
2022-08-14T22:46:23.698Z,19.90
2022-08-14T22:48:51.861Z,19.84
2022-08-14T22:51:21.465Z,19.80
2022-08-14T22:53:52.378Z,19.76
2022-08-14T22:56:22.066Z,19.70
2022-08-14T22:58:53.872Z,19.68
2022-08-14T23:01:23.650Z,19.64
2022-08-14T23:03:51.866Z,19.61
2022-08-14T23:07:02.965Z,19.58
2022-08-14T23:09:36.490Z,19.54
2022-08-14T23:11:56.672Z,19.52
2022-08-14T23:14:29.516Z,19.50
2022-08-14T23:16:58.520Z,19.50
2022-08-14T23:19:33.565Z,19.50
2022-08-14T23:22:03.628Z,19.52
2022-08-14T23:24:31.392Z,19.54
2022-08-14T23:27:00.591Z,19.57
2022-08-14T23:29:31.393Z,19.58
2022-08-14T23:31:59.445Z,19.59
2022-08-14T23:34:29.605Z,19.60
2022-08-14T23:36:57.876Z,19.61
2022-08-14T23:39:29.731Z,19.61
2022-08-14T23:42:02.290Z,19.63
2022-08-14T23:44:35.278Z,19.64
2022-08-14T23:47:11.857Z,19.63
2022-08-14T23:49:56.908Z,19.62
2022-08-14T23:53:06.038Z,19.60
2022-08-14T23:55:17.754Z,19.57
2022-08-14T23:57:57.623Z,19.54
